Aérodrome :
LOGIN :

S'inscrire | Disclaimer

   EN    FR    IT 

 










Légende :    VFR   VFR Marginal   IFR   IFR Intensif   IFR Très Intensif
Visi : 
Plafond : 
>= 8 km
>= 3000ft
5 à 8 km
1000 à 3000 ft
1500m à 5 km
500 à 1000 ft
800 à 1500m
200 à 500 ft
< 800m
< 200 ft
Symboles :   Orages  Brouillard  Fortes neiges  Fortes précipitations  Vent > 20 kt
SIGMETs :   Divers  Orages  Givrage  Turbulence  Onde Orograph.  Cendres Volcan.






- Altitude de l'aérodrome : 392 ft
- Code IATA : CDG


LFPG - Paris-Aeroport Charles De Gaulle

DERNIER METAR :
  • 031030Z AUTO 04009KT 330V090 CAVOK 24/11 Q1006 TEMPO FEW030CB

METARs EXPIRÉS :
  • 031000Z AUTO 04010KT CAVOK 24/11 Q1006 TEMPO FEW030CB
  • 030930Z AUTO 05010KT CAVOK 23/10 Q1006 TEMPO FEW030CB
  • 030900Z AUTO 06010KT 030V090 CAVOK 23/09 Q1007 TEMPO FEW030CB
  • 030830Z AUTO 06009KT 030V090 CAVOK 23/09 Q1007 TEMPO FEW030CB
  • 030800Z AUTO 06010KT CAVOK 21/10 Q1007 TEMPO FEW030CB
  • 030730Z AUTO 04010KT CAVOK 20/10 Q1007 TEMPO FEW030CB

TAF AMD TAF LFPG
Valide du 03 à 06h jusqu'au 04 à 12h UTC


030613Z 0306/0412 04008KT 9999 FEW030 TX27/0314Z TN12/0406Z
TEMPO 0306/0412 FEW030CB
PROB40
TEMPO 0318/0406 4000 TSRA
ATIS : +33 1 48 62 10 92



MET'MAP, la Météo Aéronautique d'un coup d'oeil ! - Copyright ORBIFLY Décembre 2007 - Disclaimer

ORBIFLY MET'MAP TEAM :

Programmation & Développement : Alexandra Zaïnal
Sur une idée originale de : Baudouin d'Aumeries
Assistance à la programmation : Marc-Olivier Méhu
Soutien technique & logistique : Manuel Goepfert

Contact : metmap@orbifly.com




SOURCES & CREDITS :

   NOAA